createdAt,value
2023-05-08T00:01:15.636Z,10.65
2023-05-08T00:03:43.094Z,8.68
2023-05-08T00:06:10.521Z,9.20
2023-05-08T00:08:37.611Z,9.25
2023-05-08T00:11:04.670Z,9.98
2023-05-08T00:13:31.712Z,8.60
2023-05-08T00:15:58.754Z,9.73
2023-05-08T00:18:26.623Z,9.75
2023-05-08T00:20:53.745Z,8.93
2023-05-08T00:23:22.340Z,9.60
2023-05-08T00:25:49.479Z,13.80
2023-05-08T00:28:16.434Z,10.02
2023-05-08T00:30:43.785Z,10.38
2023-05-08T00:33:11.723Z,29.70
2023-05-08T00:35:41.276Z,18.42
2023-05-08T00:38:08.572Z,31.55
2023-05-08T00:40:35.861Z,12.40
2023-05-08T00:43:03.097Z,20.05
2023-05-08T00:45:35.167Z,15.23
2023-05-08T00:48:04.108Z,18.77
2023-05-08T00:50:32.886Z,11.93
2023-05-08T00:53:02.982Z,16.08
2023-05-08T00:55:31.941Z,17.27
2023-05-08T00:57:59.613Z,16.52
2023-05-08T01:00:26.976Z,15.77
2023-05-08T01:02:54.319Z,15.15
2023-05-08T01:05:21.404Z,12.45
2023-05-08T01:07:48.710Z,14.02
2023-05-08T01:10:16.473Z,15.18
2023-05-08T01:12:58.729Z,15.32
2023-05-08T01:15:36.449Z,16.02
2023-05-08T01:18:27.940Z,14.23
2023-05-08T01:21:06.626Z,13.38
2023-05-08T01:24:06.584Z,11.68
2023-05-08T01:26:55.809Z,13.43
2023-05-08T01:29:35.025Z,15.18
2023-05-08T01:32:31.548Z,15.15
2023-05-08T01:35:10.855Z,14.20
2023-05-08T01:37:51.949Z,14.32
2023-05-08T01:40:28.524Z,15.93
2023-05-08T01:43:08.526Z,13.65
2023-05-08T01:45:40.657Z,15.55
2023-05-08T01:48:13.750Z,15.15
2023-05-08T01:50:48.659Z,9.75
2023-05-08T01:53:28.086Z,10.32
2023-05-08T01:55:59.980Z,8.73
2023-05-08T01:58:28.376Z,10.20
2023-05-08T02:00:56.829Z,10.38
2023-05-08T02:03:26.150Z,8.80
2023-05-08T02:05:56.785Z,8.32
2023-05-08T02:08:25.088Z,8.85
2023-05-08T02:10:52.758Z,9.07
2023-05-08T02:13:22.166Z,7.68
2023-05-08T02:15:51.099Z,8.63
2023-05-08T02:18:22.174Z,9.82
2023-05-08T02:20:54.461Z,8.23
2023-05-08T02:23:44.112Z,10.10
2023-05-08T02:26:12.936Z,8.95
2023-05-08T02:28:41.432Z,9.73
2023-05-08T02:31:10.386Z,11.15
2023-05-08T02:33:41.530Z,10.30
2023-05-08T02:36:11.100Z,10.18
2023-05-08T02:38:39.914Z,13.17
2023-05-08T02:41:09.507Z,8.80
2023-05-08T02:43:37.399Z,10.00
2023-05-08T02:46:18.586Z,11.50
2023-05-08T02:49:09.288Z,11.00
2023-05-08T02:51:37.647Z,11.73
2023-05-08T02:54:25.404Z,9.05
2023-05-08T02:57:18.933Z,9.25
2023-05-08T02:59:59.929Z,8.55
2023-05-08T03:03:02.100Z,10.80
2023-05-08T03:05:33.859Z,11.30
2023-05-08T03:08:07.247Z,13.00
2023-05-08T03:10:37.110Z,12.00
2023-05-08T03:13:06.311Z,12.85
2023-05-08T03:15:36.347Z,13.00
2023-05-08T03:18:08.900Z,12.32
2023-05-08T03:20:40.474Z,12.13
2023-05-08T03:23:10.876Z,14.02
2023-05-08T03:28:07.931Z,11.93
2023-05-08T03:30:40.994Z,12.18
2023-05-08T03:33:13.174Z,10.45
2023-05-08T03:35:41.165Z,10.85
2023-05-08T03:38:09.631Z,12.00
2023-05-08T03:40:38.756Z,12.68
2023-05-08T03:43:10.610Z,12.43
2023-05-08T03:45:40.216Z,13.55
2023-05-08T03:48:08.971Z,16.00
2023-05-08T03:50:38.136Z,13.40
2023-05-08T03:53:08.265Z,13.23
2023-05-08T03:55:36.339Z,12.43
2023-05-08T03:58:15.320Z,12.82
2023-05-08T04:01:27.539Z,12.93
2023-05-08T04:04:13.832Z,12.93
2023-05-08T04:06:52.588Z,10.52
2023-05-08T04:09:39.545Z,10.55
2023-05-08T04:12:12.617Z,10.88
2023-05-08T04:14:48.180Z,10.10
2023-05-08T04:17:22.624Z,9.48
2023-05-08T04:19:55.994Z,9.93
2023-05-08T04:22:27.286Z,7.50
2023-05-08T04:24:58.846Z,6.38
2023-05-08T04:27:27.320Z,6.43
2023-05-08T04:29:56.454Z,6.20
2023-05-08T04:32:24.476Z,5.77
2023-05-08T04:34:51.840Z,5.97
2023-05-08T04:37:31.374Z,6.70
2023-05-08T04:40:01.383Z,6.07
2023-05-08T04:42:33.615Z,5.97
2023-05-08T04:45:01.829Z,4.97
2023-05-08T04:47:32.706Z,4.60
2023-05-08T04:50:02.544Z,4.65
2023-05-08T04:52:32.083Z,3.80
2023-05-08T04:54:59.113Z,4.40
2023-05-08T04:57:26.381Z,4.10
2023-05-08T04:59:53.375Z,4.00
2023-05-08T05:02:20.660Z,4.13
2023-05-08T05:04:49.320Z,4.00
2023-05-08T05:07:16.390Z,3.63
2023-05-08T05:09:43.786Z,4.63
2023-05-08T05:12:11.153Z,4.13
2023-05-08T05:14:38.217Z,3.75
2023-05-08T05:17:06.292Z,3.70
2023-05-08T05:19:33.596Z,3.53
2023-05-08T05:22:01.100Z,3.88
2023-05-08T05:24:28.363Z,3.20
2023-05-08T05:26:57.784Z,3.47
2023-05-08T05:29:25.049Z,3.50
2023-05-08T05:31:52.183Z,3.40
2023-05-08T05:34:19.449Z,3.53
2023-05-08T05:36:46.546Z,3.97
2023-05-08T05:39:13.842Z,3.50
2023-05-08T05:41:44.338Z,2.60
2023-05-08T05:44:12.869Z,2.65
2023-05-08T05:46:42.089Z,2.17
2023-05-08T05:49:11.948Z,2.08
2023-05-08T05:51:39.063Z,2.10
2023-05-08T05:54:06.264Z,2.30
2023-05-08T05:56:33.419Z,2.67
2023-05-08T05:59:00.872Z,2.35
2023-05-08T06:01:29.276Z,2.35
2023-05-08T06:03:57.098Z,2.58
2023-05-08T06:06:25.024Z,2.60
2023-05-08T06:08:52.030Z,2.40
2023-05-08T06:11:19.664Z,2.20
2023-05-08T06:13:48.179Z,2.45
2023-05-08T06:16:17.643Z,2.35
2023-05-08T06:18:45.390Z,2.67
2023-05-08T06:21:12.499Z,2.40
2023-05-08T06:23:39.631Z,2.70
2023-05-08T06:26:06.660Z,2.17
2023-05-08T06:28:33.975Z,1.95
2023-05-08T06:31:01.067Z,2.05
2023-05-08T06:33:28.183Z,2.13
2023-05-08T06:35:55.271Z,2.00
2023-05-08T06:38:22.366Z,2.13
2023-05-08T06:40:50.886Z,2.20
2023-05-08T06:43:18.011Z,2.30
2023-05-08T06:45:45.810Z,1.73
2023-05-08T06:48:13.253Z,2.03
2023-05-08T06:50:41.107Z,1.92
2023-05-08T06:53:08.713Z,1.95
2023-05-08T06:55:35.770Z,1.80
2023-05-08T06:58:03.024Z,2.45
2023-05-08T07:00:30.265Z,2.30
2023-05-08T07:02:57.493Z,2.60
2023-05-08T07:05:24.629Z,1.90
2023-05-08T07:07:54.144Z,2.35
2023-05-08T07:10:23.029Z,2.17
2023-05-08T07:12:50.302Z,4.03
2023-05-08T07:15:25.311Z,1.80
2023-05-08T07:17:53.566Z,1.88
2023-05-08T07:20:21.727Z,1.98
2023-05-08T07:22:49.013Z,1.55
2023-05-08T07:25:16.367Z,2.28
2023-05-08T07:27:43.615Z,3.80
2023-05-08T07:30:11.318Z,2.92
2023-05-08T07:32:41.294Z,2.58
2023-05-08T07:35:11.272Z,2.38
2023-05-08T07:37:41.867Z,1.70
2023-05-08T07:40:09.448Z,1.35
2023-05-08T07:42:41.137Z,1.50
2023-05-08T07:45:10.693Z,1.23
2023-05-08T07:47:38.835Z,1.17
2023-05-08T07:50:06.611Z,1.30
2023-05-08T07:52:33.707Z,1.20
2023-05-08T07:55:00.800Z,1.40
2023-05-08T07:57:27.910Z,1.48
2023-05-08T07:59:54.911Z,1.80
2023-05-08T08:02:22.092Z,2.60
2023-05-08T08:04:49.635Z,1.92
2023-05-08T08:07:16.877Z,2.20
2023-05-08T08:09:43.967Z,1.30
2023-05-08T08:12:11.485Z,1.63
2023-05-08T08:14:38.788Z,1.35
2023-05-08T08:17:05.886Z,1.30
2023-05-08T08:19:33.068Z,1.50
2023-05-08T08:22:00.344Z,1.38
2023-05-08T08:24:29.372Z,1.40
2023-05-08T08:26:56.582Z,1.88
2023-05-08T08:29:23.705Z,1.85
2023-05-08T08:31:50.747Z,1.40
2023-05-08T08:34:18.111Z,1.40
2023-05-08T08:36:45.305Z,1.30
2023-05-08T08:39:13.880Z,1.33
2023-05-08T08:41:42.350Z,1.60
2023-05-08T08:44:09.698Z,1.95
2023-05-08T08:46:44.321Z,2.47
2023-05-08T08:49:17.605Z,1.70
2023-05-08T08:51:52.937Z,1.75
2023-05-08T08:54:31.726Z,2.30
2023-05-08T08:57:02.094Z,1.75
2023-05-08T08:59:30.126Z,1.52
2023-05-08T09:02:01.483Z,1.70
2023-05-08T09:04:29.799Z,1.48
2023-05-08T09:06:58.288Z,1.77
2023-05-08T09:09:26.096Z,1.30
2023-05-08T09:11:53.566Z,1.10
2023-05-08T09:14:20.736Z,1.13
2023-05-08T09:16:47.865Z,1.30
2023-05-08T09:19:18.266Z,2.33
2023-05-08T09:21:45.882Z,2.00
2023-05-08T09:24:13.192Z,1.40
2023-05-08T09:26:41.984Z,1.20
2023-05-08T09:29:12.438Z,1.70
2023-05-08T09:31:42.883Z,1.70
2023-05-08T09:34:12.130Z,1.73
2023-05-08T09:36:42.524Z,1.98
2023-05-08T09:41:57.934Z,1.80
2023-05-08T09:44:25.330Z,2.38
2023-05-08T09:46:52.446Z,1.40
2023-05-08T09:49:19.846Z,1.70
2023-05-08T09:51:56.279Z,1.77
2023-05-08T09:54:23.840Z,1.50
2023-05-08T09:56:51.170Z,2.03
2023-05-08T09:59:30.024Z,1.90
2023-05-08T10:01:58.320Z,1.70
2023-05-08T10:04:35.993Z,1.80
2023-05-08T10:07:04.084Z,1.85
2023-05-08T10:09:42.475Z,2.38
2023-05-08T10:12:14.451Z,2.20
2023-05-08T10:14:43.580Z,1.80
2023-05-08T10:17:12.432Z,1.60
2023-05-08T10:19:45.001Z,2.15
2023-05-08T10:22:15.110Z,2.05
2023-05-08T10:24:44.563Z,2.63
2023-05-08T10:27:19.980Z,2.20
2023-05-08T10:29:56.106Z,1.95
2023-05-08T10:32:24.953Z,1.85
2023-05-08T10:35:04.498Z,1.73
2023-05-08T10:37:36.180Z,2.10
2023-05-08T10:40:05.360Z,1.75
2023-05-08T10:42:36.469Z,1.83
2023-05-08T10:45:05.931Z,1.90
2023-05-08T10:47:45.904Z,1.50
2023-05-08T10:50:38.825Z,1.60
2023-05-08T10:53:23.239Z,1.40
2023-05-08T10:55:52.206Z,1.35
2023-05-08T10:58:32.484Z,1.48
2023-05-08T11:00:59.770Z,1.40
2023-05-08T11:03:32.528Z,1.25
2023-05-08T11:06:01.979Z,1.30
2023-05-08T11:08:31.054Z,1.50
2023-05-08T11:11:06.528Z,1.50
2023-05-08T11:13:37.034Z,1.40
2023-05-08T11:16:11.186Z,1.40
2023-05-08T11:18:48.816Z,1.95
2023-05-08T11:21:24.288Z,1.90
2023-05-08T11:24:00.429Z,1.45
2023-05-08T11:26:42.830Z,1.60
2023-05-08T11:29:18.916Z,1.55
2023-05-08T11:31:53.376Z,1.63
2023-05-08T11:34:42.565Z,1.50
2023-05-08T11:37:12.088Z,1.80
2023-05-08T11:39:39.197Z,1.70
2023-05-08T11:42:24.927Z,2.00
2023-05-08T11:45:10.822Z,2.10
2023-05-08T11:47:41.576Z,2.20
2023-05-08T11:50:10.233Z,1.77
2023-05-08T11:52:39.573Z,2.05
2023-05-08T11:55:09.633Z,1.98
2023-05-08T11:57:36.937Z,1.90
2023-05-08T12:00:06.297Z,2.17
2023-05-08T12:02:41.349Z,1.90
2023-05-08T12:05:10.274Z,1.85
2023-05-08T12:07:47.498Z,2.05
2023-05-08T12:10:16.129Z,2.20
2023-05-08T12:12:45.253Z,1.77
2023-05-08T12:15:16.087Z,1.70
2023-05-08T12:17:43.660Z,1.70
2023-05-08T12:20:16.183Z,1.95
2023-05-08T12:22:51.696Z,1.77
2023-05-08T12:25:19.457Z,1.73
2023-05-08T12:27:47.492Z,1.70
2023-05-08T12:30:16.598Z,1.98
2023-05-08T12:32:44.758Z,2.00
2023-05-08T12:35:13.149Z,1.90
2023-05-08T12:37:40.737Z,1.80
2023-05-08T12:40:22.225Z,1.60
2023-05-08T12:42:50.886Z,1.83
2023-05-08T12:45:22.693Z,1.67
2023-05-08T12:47:50.893Z,1.52
2023-05-08T12:50:21.304Z,1.70
2023-05-08T12:52:51.288Z,1.90
2023-05-08T12:55:30.216Z,1.88
2023-05-08T12:58:09.170Z,1.70
2023-05-08T13:00:44.863Z,1.80
2023-05-08T13:03:21.452Z,1.90
2023-05-08T13:05:48.752Z,2.13
2023-05-08T13:08:15.941Z,1.65
2023-05-08T13:10:46.964Z,1.65
2023-05-08T13:13:15.695Z,1.75
2023-05-08T13:15:43.380Z,1.75
2023-05-08T13:18:11.052Z,1.50
2023-05-08T13:20:39.278Z,1.60
2023-05-08T13:23:06.767Z,1.90
2023-05-08T13:25:34.353Z,1.50
2023-05-08T13:28:01.704Z,2.08
2023-05-08T13:30:28.788Z,1.70
2023-05-08T13:32:56.308Z,2.15
2023-05-08T13:35:23.952Z,1.70
2023-05-08T13:37:51.370Z,1.50
2023-05-08T13:40:18.605Z,1.65
2023-05-08T13:42:47.117Z,2.20
2023-05-08T13:45:18.619Z,2.35
2023-05-08T13:47:47.510Z,2.53
2023-05-08T13:50:16.322Z,2.42
2023-05-08T13:52:43.584Z,2.63
2023-05-08T13:55:14.416Z,2.30
2023-05-08T13:57:41.727Z,2.50
2023-05-08T14:00:09.981Z,2.40
2023-05-08T14:02:37.945Z,2.10
2023-05-08T14:05:08.171Z,2.80
2023-05-08T14:07:36.010Z,1.95
2023-05-08T14:10:03.542Z,1.98
2023-05-08T14:12:36.149Z,1.80
2023-05-08T14:15:07.683Z,1.85
2023-05-08T14:17:35.823Z,1.90
2023-05-08T14:20:04.361Z,2.28
2023-05-08T14:22:35.399Z,1.92
2023-05-08T14:25:02.694Z,1.80
2023-05-08T14:27:33.439Z,1.80
2023-05-08T14:30:01.460Z,4.78
2023-05-08T14:32:35.123Z,2.10
2023-05-08T14:35:02.358Z,1.92
2023-05-08T14:39:59.647Z,1.83
2023-05-08T14:42:26.779Z,2.00
2023-05-08T14:44:53.945Z,2.30
2023-05-08T14:47:21.067Z,3.42
2023-05-08T14:49:48.092Z,2.78
2023-05-08T14:52:15.177Z,9.18
2023-05-08T14:54:42.321Z,2.97
2023-05-08T14:57:09.583Z,2.10
2023-05-08T14:59:37.080Z,2.58
2023-05-08T15:02:04.715Z,2.50
2023-05-08T15:04:31.956Z,2.30
2023-05-08T15:06:59.114Z,2.22
2023-05-08T15:09:26.244Z,2.60
2023-05-08T15:11:53.332Z,2.40
2023-05-08T15:14:20.411Z,2.72
2023-05-08T15:16:47.553Z,2.55
2023-05-08T15:19:14.615Z,2.90
2023-05-08T15:21:41.706Z,2.60
2023-05-08T15:24:09.378Z,4.13
2023-05-08T15:26:36.529Z,3.78
2023-05-08T15:29:03.805Z,3.63
2023-05-08T15:31:31.124Z,1.85
2023-05-08T15:33:58.192Z,2.92
2023-05-08T15:36:25.438Z,3.22
2023-05-08T15:38:54.305Z,3.60
2023-05-08T15:41:21.998Z,3.13
2023-05-08T15:43:49.051Z,3.42
2023-05-08T15:46:16.317Z,3.10
2023-05-08T15:48:43.536Z,3.50
2023-05-08T15:51:10.761Z,3.67
2023-05-08T15:53:37.844Z,5.43
2023-05-08T15:56:06.533Z,4.05
2023-05-08T15:58:33.580Z,3.45
2023-05-08T16:01:00.676Z,3.88
2023-05-08T16:03:27.791Z,4.00
2023-05-08T16:05:55.001Z,3.08
2023-05-08T16:08:22.205Z,3.58
2023-05-08T16:10:49.474Z,3.47
2023-05-08T16:13:16.825Z,3.50
2023-05-08T16:15:44.031Z,3.20
2023-05-08T16:18:11.469Z,4.40
2023-05-08T16:20:41.784Z,3.38
2023-05-08T16:23:08.915Z,2.80
2023-05-08T16:25:36.079Z,2.78
2023-05-08T16:28:03.272Z,2.80
2023-05-08T16:30:30.879Z,2.90
2023-05-08T16:32:58.070Z,2.70
2023-05-08T16:35:25.333Z,2.58
2023-05-08T16:37:52.416Z,3.00
2023-05-08T16:40:19.623Z,2.92
2023-05-08T16:42:47.203Z,2.60
2023-05-08T16:45:14.753Z,3.00
2023-05-08T16:47:42.398Z,3.55
2023-05-08T16:50:09.895Z,4.05
2023-05-08T16:52:36.939Z,3.70
2023-05-08T16:55:04.196Z,3.92
2023-05-08T16:57:31.439Z,5.20
2023-05-08T16:59:58.505Z,4.30
2023-05-08T17:02:25.838Z,4.63
2023-05-08T17:04:53.010Z,4.68
2023-05-08T17:07:20.041Z,4.55
2023-05-08T17:09:49.379Z,4.18
2023-05-08T17:12:16.553Z,4.30
2023-05-08T17:14:43.638Z,5.18
2023-05-08T17:17:11.561Z,4.78
2023-05-08T17:19:38.706Z,4.78
2023-05-08T17:22:05.742Z,4.35
2023-05-08T17:24:33.045Z,5.47
2023-05-08T17:27:00.044Z,3.55
2023-05-08T17:29:27.221Z,4.03
2023-05-08T17:31:54.317Z,5.00
2023-05-08T17:34:22.816Z,3.47
2023-05-08T17:36:50.199Z,4.05
2023-05-08T17:39:21.811Z,4.07
2023-05-08T17:41:49.657Z,3.70
2023-05-08T17:44:17.610Z,3.70
2023-05-08T17:46:45.324Z,4.57
2023-05-08T17:49:13.127Z,3.33
2023-05-08T17:51:41.424Z,3.83
2023-05-08T17:54:08.737Z,4.68
2023-05-08T17:56:35.852Z,5.30
2023-05-08T17:59:02.876Z,5.88
2023-05-08T18:01:30.066Z,10.38
2023-05-08T18:03:57.165Z,8.25
2023-05-08T18:06:24.357Z,12.75
2023-05-08T18:08:51.490Z,8.63
2023-05-08T18:11:24.188Z,9.02
2023-05-08T18:13:53.844Z,8.38
2023-05-08T18:16:22.376Z,8.25
2023-05-08T18:18:50.218Z,7.15
2023-05-08T18:21:17.397Z,7.00
2023-05-08T18:23:44.440Z,6.07
2023-05-08T18:26:17.139Z,8.30
2023-05-08T18:28:44.833Z,7.90
2023-05-08T18:31:12.316Z,7.30
2023-05-08T18:33:39.725Z,6.95
2023-05-08T18:36:07.345Z,7.50
2023-05-08T18:38:34.974Z,8.48
2023-05-08T18:41:03.457Z,8.18
2023-05-08T18:43:30.650Z,5.78
2023-05-08T18:45:59.168Z,7.75
2023-05-08T18:48:27.415Z,6.65
2023-05-08T18:50:58.812Z,6.57
2023-05-08T18:53:26.289Z,7.28
2023-05-08T18:55:53.425Z,7.25
2023-05-08T18:58:20.754Z,7.07
2023-05-08T19:00:48.230Z,8.75
2023-05-08T19:03:15.451Z,7.25
2023-05-08T19:05:42.780Z,8.55
2023-05-08T19:08:09.971Z,6.65
2023-05-08T19:10:37.083Z,5.97
2023-05-08T19:13:04.345Z,7.13
2023-05-08T19:15:31.510Z,5.60
2023-05-08T19:17:58.894Z,6.43
2023-05-08T19:20:26.132Z,5.65
2023-05-08T19:22:53.712Z,5.40
2023-05-08T19:25:21.126Z,6.03
2023-05-08T19:27:48.860Z,5.25
2023-05-08T19:30:16.298Z,5.45
2023-05-08T19:32:43.754Z,6.90
2023-05-08T19:35:11.000Z,9.02
2023-05-08T19:37:38.143Z,7.20
2023-05-08T19:40:06.552Z,7.63
2023-05-08T19:42:33.711Z,8.50
2023-05-08T19:45:01.427Z,8.50
2023-05-08T19:47:32.612Z,9.10
2023-05-08T19:49:59.695Z,8.77
2023-05-08T19:52:26.797Z,8.18
2023-05-08T19:54:53.807Z,7.25
2023-05-08T19:57:20.914Z,7.65
2023-05-08T19:59:48.023Z,6.15
2023-05-08T20:02:15.332Z,6.30
2023-05-08T20:05:10.527Z,6.60
2023-05-08T20:07:33.454Z,6.18
2023-05-08T20:10:00.571Z,7.28
2023-05-08T20:12:27.692Z,6.30
2023-05-08T20:14:54.816Z,6.97
2023-05-08T20:17:22.019Z,6.28
2023-05-08T20:19:49.322Z,6.53
2023-05-08T20:22:16.484Z,6.43
2023-05-08T20:24:43.495Z,6.53
2023-05-08T20:27:10.549Z,6.47
2023-05-08T20:29:37.717Z,5.38
2023-05-08T20:32:04.852Z,7.47
2023-05-08T20:34:31.978Z,5.10
2023-05-08T20:37:01.014Z,5.25
2023-05-08T20:39:28.115Z,4.70
2023-05-08T20:41:55.120Z,4.72
2023-05-08T20:44:22.145Z,5.90
2023-05-08T20:46:49.189Z,4.93
2023-05-08T20:49:17.313Z,6.32
2023-05-08T20:51:44.457Z,10.25
2023-05-08T20:54:11.486Z,7.85
2023-05-08T20:56:38.577Z,5.03
2023-05-08T20:59:05.789Z,5.18
2023-05-08T21:01:32.949Z,5.40
2023-05-08T21:04:00.118Z,5.22
2023-05-08T21:06:27.300Z,5.63
2023-05-08T21:08:54.338Z,6.25
2023-05-08T21:11:21.377Z,5.63
2023-05-08T21:13:48.467Z,5.43
2023-05-08T21:16:16.074Z,5.18
2023-05-08T21:18:43.093Z,6.70
2023-05-08T21:21:22.660Z,4.25
2023-05-08T21:23:49.728Z,5.00
2023-05-08T21:26:18.166Z,4.55
2023-05-08T21:28:45.153Z,4.60
2023-05-08T21:31:12.210Z,4.63
2023-05-08T21:33:39.389Z,6.80
2023-05-08T21:36:06.687Z,4.75
2023-05-08T21:38:34.355Z,4.28
2023-05-08T21:41:10.868Z,4.18
2023-05-08T21:43:37.971Z,4.20
2023-05-08T21:46:06.741Z,4.30
2023-05-08T21:48:34.079Z,4.72
2023-05-08T21:51:01.814Z,6.32
2023-05-08T21:53:29.118Z,4.70
2023-05-08T21:55:56.251Z,6.15
2023-05-08T21:58:23.307Z,5.80
2023-05-08T22:00:52.148Z,5.30
2023-05-08T22:03:19.378Z,4.60
2023-05-08T22:05:46.616Z,6.68
2023-05-08T22:08:13.680Z,5.85
2023-05-08T22:10:40.924Z,5.40
2023-05-08T22:13:08.347Z,4.40
2023-05-08T22:15:35.680Z,6.38
2023-05-08T22:18:03.130Z,6.25
2023-05-08T22:20:30.796Z,4.78
2023-05-08T22:22:57.812Z,6.00
2023-05-08T22:25:25.787Z,5.35
2023-05-08T22:27:53.148Z,5.32
2023-05-08T22:30:20.309Z,5.60
2023-05-08T22:32:56.368Z,5.55
2023-05-08T22:35:25.098Z,6.90
2023-05-08T22:37:53.302Z,6.00
2023-05-08T22:40:21.580Z,6.40
2023-05-08T22:42:51.354Z,6.53
2023-05-08T22:45:18.724Z,6.85
2023-05-08T22:47:46.117Z,6.40
2023-05-08T22:50:14.272Z,5.15
2023-05-08T22:52:41.346Z,5.40
2023-05-08T22:55:09.132Z,5.50
2023-05-08T22:57:36.269Z,5.47
2023-05-08T23:00:04.454Z,5.05
2023-05-08T23:02:35.615Z,6.97
2023-05-08T23:05:03.994Z,7.40
2023-05-08T23:10:00.442Z,5.50
2023-05-08T23:12:27.612Z,6.57
2023-05-08T23:14:54.617Z,6.28
2023-05-08T23:17:21.725Z,5.53
2023-05-08T23:19:48.754Z,6.00
2023-05-08T23:22:15.710Z,6.07
2023-05-08T23:24:42.751Z,7.20
2023-05-08T23:27:09.833Z,7.22
2023-05-08T23:29:36.779Z,8.43
2023-05-08T23:32:03.907Z,6.60
2023-05-08T23:34:30.902Z,6.25
2023-05-08T23:36:58.044Z,5.75
2023-05-08T23:39:41.145Z,5.90
2023-05-08T23:42:08.790Z,5.97
2023-05-08T23:44:35.931Z,5.68
2023-05-08T23:47:03.081Z,8.82
2023-05-08T23:49:30.292Z,8.75
2023-05-08T23:51:57.343Z,6.78
2023-05-08T23:54:24.523Z,6.32
2023-05-08T23:56:51.531Z,6.10
2023-05-08T23:59:18.593Z,5.63
